createdAt,value
2022-08-26T00:01:54.623Z,21.45
2022-08-26T00:04:25.471Z,21.43
2022-08-26T00:06:55.557Z,21.41
2022-08-26T00:09:25.387Z,21.38
2022-08-26T00:11:54.257Z,21.37
2022-08-26T00:14:27.035Z,21.36
2022-08-26T00:16:57.817Z,21.33
2022-08-26T00:19:25.509Z,21.34
2022-08-26T00:21:53.179Z,21.29
2022-08-26T00:24:21.668Z,21.27
2022-08-26T00:26:50.483Z,21.25
2022-08-26T00:29:19.803Z,21.24
2022-08-26T00:31:49.549Z,21.25
2022-08-26T00:34:19.422Z,21.29
2022-08-26T00:36:51.818Z,21.32
2022-08-26T00:39:20.969Z,21.33
2022-08-26T00:41:48.704Z,21.35
2022-08-26T00:44:17.532Z,21.36
2022-08-26T00:46:51.044Z,21.34
2022-08-26T00:49:25.880Z,21.32
2022-08-26T00:51:55.532Z,21.31
2022-08-26T00:54:27.421Z,21.30
2022-08-26T00:57:16.307Z,21.28
2022-08-26T00:59:52.925Z,21.27
2022-08-26T01:02:21.736Z,21.23
2022-08-26T01:04:57.066Z,21.19
2022-08-26T01:07:30.295Z,21.16
2022-08-26T01:10:01.807Z,21.13
2022-08-26T01:12:33.809Z,21.13
2022-08-26T01:15:03.055Z,21.11
2022-08-26T01:17:33.777Z,21.09
2022-08-26T01:20:21.681Z,21.07
2022-08-26T01:22:52.368Z,21.05
2022-08-26T01:25:21.588Z,21.03
2022-08-26T01:27:51.392Z,21.03
2022-08-26T01:30:19.988Z,21.00
2022-08-26T01:32:50.032Z,20.98
2022-08-26T01:35:18.786Z,20.93
2022-08-26T01:37:49.872Z,20.92
2022-08-26T01:40:25.561Z,20.88
2022-08-26T01:42:54.681Z,20.85
2022-08-26T01:45:29.866Z,20.82
2022-08-26T01:48:01.789Z,20.80
2022-08-26T01:50:33.326Z,20.76
2022-08-26T01:53:06.067Z,20.74
2022-08-26T01:55:34.499Z,20.74
2022-08-26T01:58:07.894Z,20.74
2022-08-26T02:00:36.509Z,20.73
2022-08-26T02:03:22.987Z,20.70
2022-08-26T02:05:55.178Z,20.68
2022-08-26T02:08:36.910Z,20.67
2022-08-26T02:11:05.328Z,20.68
2022-08-26T02:13:37.372Z,20.68
2022-08-26T02:16:06.043Z,20.66
2022-08-26T02:18:38.811Z,20.64
2022-08-26T02:21:08.357Z,20.61
2022-08-26T02:23:36.003Z,20.59
2022-08-26T02:26:09.965Z,20.57
2022-08-26T02:28:46.494Z,20.52
2022-08-26T02:31:14.548Z,20.45
2022-08-26T02:33:43.033Z,20.39
2022-08-26T02:36:12.163Z,20.32
2022-08-26T02:38:41.262Z,20.27
2022-08-26T02:41:11.201Z,20.20
2022-08-26T02:43:38.809Z,20.13
2022-08-26T02:46:06.552Z,20.08
2022-08-26T02:48:34.533Z,20.06
2022-08-26T02:51:03.788Z,20.08
2022-08-26T02:53:35.467Z,20.10
2022-08-26T02:56:07.154Z,20.10
2022-08-26T02:58:35.329Z,20.08
2022-08-26T03:01:04.978Z,20.07
2022-08-26T03:03:33.560Z,20.06
2022-08-26T03:06:01.480Z,20.04
2022-08-26T03:08:29.166Z,20.01
2022-08-26T03:10:56.863Z,20.00
2022-08-26T03:13:24.444Z,19.99
2022-08-26T03:15:52.133Z,19.98
2022-08-26T03:18:20.496Z,20.00
2022-08-26T03:20:48.416Z,19.99
2022-08-26T03:23:16.537Z,19.97
2022-08-26T03:25:53.025Z,19.98
2022-08-26T03:28:20.665Z,19.97
2022-08-26T03:30:49.064Z,19.96
2022-08-26T03:33:16.930Z,19.95
2022-08-26T03:35:47.149Z,19.93
2022-08-26T03:38:15.309Z,19.91
2022-08-26T03:40:43.598Z,19.88
2022-08-26T03:43:12.381Z,19.84
2022-08-26T03:45:40.970Z,19.81
2022-08-26T03:48:11.328Z,19.77
2022-08-26T03:50:39.784Z,19.76
2022-08-26T03:53:12.838Z,19.73
2022-08-26T03:55:42.170Z,19.72
2022-08-26T03:58:10.961Z,19.72
2022-08-26T04:00:39.359Z,19.72
2022-08-26T04:03:09.978Z,19.71
2022-08-26T04:05:38.146Z,19.69
2022-08-26T04:08:06.920Z,19.67
2022-08-26T04:10:38.301Z,19.65
2022-08-26T04:13:06.413Z,19.63
2022-08-26T04:15:34.295Z,19.63
2022-08-26T04:18:01.895Z,19.65
2022-08-26T04:20:29.590Z,19.68
2022-08-26T04:22:57.244Z,19.71
2022-08-26T04:25:24.896Z,19.74
2022-08-26T04:27:52.559Z,19.77
2022-08-26T04:30:20.408Z,19.79
2022-08-26T04:32:49.434Z,19.81
2022-08-26T04:35:17.227Z,19.81
2022-08-26T04:37:44.834Z,19.79
2022-08-26T04:40:12.537Z,19.78
2022-08-26T04:42:40.280Z,19.78
2022-08-26T04:45:10.183Z,19.78
2022-08-26T04:47:38.436Z,19.80
2022-08-26T04:50:07.691Z,19.82
2022-08-26T04:52:36.505Z,19.83
2022-08-26T04:55:08.617Z,19.86
2022-08-26T04:57:36.724Z,19.90
2022-08-26T05:00:11.993Z,19.92
2022-08-26T05:02:40.780Z,19.96
2022-08-26T05:05:08.833Z,20.01
2022-08-26T05:07:36.497Z,20.06
2022-08-26T05:10:04.692Z,20.12
2022-08-26T05:12:36.766Z,20.18
2022-08-26T05:15:06.774Z,20.26
2022-08-26T05:17:34.453Z,20.31
2022-08-26T05:20:02.218Z,20.37
2022-08-26T05:22:29.910Z,20.43
2022-08-26T05:24:57.591Z,20.48
2022-08-26T05:27:25.247Z,20.52
2022-08-26T05:29:57.162Z,20.56
2022-08-26T05:32:24.856Z,20.60
2022-08-26T05:34:56.971Z,20.67
2022-08-26T05:37:26.326Z,20.75
2022-08-26T05:39:53.988Z,20.81
2022-08-26T05:42:21.932Z,20.86
2022-08-26T05:44:53.995Z,20.91
2022-08-26T05:47:26.147Z,20.98
2022-08-26T05:49:54.538Z,21.04
2022-08-26T05:52:22.180Z,21.08
2022-08-26T05:54:53.544Z,21.13
2022-08-26T05:57:23.157Z,21.21
2022-08-26T05:59:52.221Z,21.29
2022-08-26T06:02:20.491Z,21.38
2022-08-26T06:04:48.213Z,21.45
2022-08-26T06:07:16.877Z,21.49
2022-08-26T06:09:46.256Z,21.52
2022-08-26T06:12:14.111Z,21.54
2022-08-26T06:14:43.398Z,21.57
2022-08-26T06:17:12.256Z,21.59
2022-08-26T06:19:41.342Z,21.59
2022-08-26T06:22:29.137Z,21.61
2022-08-26T06:25:12.788Z,21.63
2022-08-26T06:27:40.411Z,21.67
2022-08-26T06:30:09.853Z,21.70
2022-08-26T06:32:37.555Z,21.75
2022-08-26T06:35:06.229Z,21.80
2022-08-26T06:37:40.308Z,21.86
2022-08-26T06:40:09.670Z,21.91
2022-08-26T06:42:39.602Z,21.94
2022-08-26T06:45:08.997Z,21.93
2022-08-26T06:47:37.003Z,21.91
2022-08-26T06:50:05.349Z,21.98
2022-08-26T06:52:33.067Z,22.10
2022-08-26T06:55:02.986Z,22.22
2022-08-26T06:57:32.762Z,22.33
2022-08-26T07:00:12.913Z,22.47
2022-08-26T07:02:41.835Z,22.57
2022-08-26T07:05:15.077Z,22.65
2022-08-26T07:07:42.749Z,22.68
2022-08-26T07:10:10.743Z,22.70
2022-08-26T07:12:38.813Z,22.73
2022-08-26T07:15:06.838Z,22.75
2022-08-26T07:17:35.951Z,22.80
2022-08-26T07:20:07.731Z,22.88
2022-08-26T07:22:37.056Z,22.97
2022-08-26T07:25:07.969Z,23.07
2022-08-26T07:27:37.919Z,23.17
2022-08-26T07:30:07.768Z,23.28
2022-08-26T07:32:37.408Z,23.40
2022-08-26T07:35:06.301Z,23.52
2022-08-26T07:37:39.079Z,23.63
2022-08-26T07:40:07.640Z,23.73
2022-08-26T07:42:37.176Z,23.82
2022-08-26T07:45:05.857Z,23.89
2022-08-26T07:47:33.520Z,23.96
2022-08-26T07:50:01.297Z,24.02
2022-08-26T07:52:30.695Z,24.08
2022-08-26T07:55:01.324Z,24.16
2022-08-26T07:57:30.425Z,24.24
2022-08-26T07:59:59.522Z,24.31
2022-08-26T08:02:29.101Z,24.36
2022-08-26T08:04:58.349Z,24.41
2022-08-26T08:07:44.177Z,24.49
2022-08-26T08:10:19.222Z,24.57
2022-08-26T08:12:49.960Z,24.65
2022-08-26T08:15:20.094Z,24.70
2022-08-26T08:17:50.533Z,24.74
2022-08-26T08:20:22.053Z,24.76
2022-08-26T08:22:51.970Z,24.80
2022-08-26T08:25:21.685Z,24.88
2022-08-26T08:27:49.671Z,24.93
2022-08-26T08:30:20.940Z,24.90
2022-08-26T08:32:52.278Z,24.83
2022-08-26T08:35:23.886Z,24.82
2022-08-26T08:37:54.651Z,24.87
2022-08-26T08:40:26.009Z,24.95
2022-08-26T08:43:13.418Z,25.03
2022-08-26T08:45:53.624Z,25.03
2022-08-26T08:48:27.758Z,24.98
2022-08-26T08:50:58.839Z,24.88
2022-08-26T08:53:41.542Z,24.78
2022-08-26T08:56:46.180Z,24.74
2022-08-26T08:59:35.190Z,24.82
2022-08-26T09:02:55.819Z,24.90
2022-08-26T09:05:45.448Z,24.97
2022-08-26T09:08:27.357Z,25.04
2022-08-26T09:11:01.851Z,25.18
2022-08-26T09:13:31.799Z,25.40
2022-08-26T09:16:31.973Z,25.61
2022-08-26T09:19:31.570Z,25.77
2022-08-26T09:22:02.167Z,25.90
2022-08-26T09:24:41.764Z,25.96
2022-08-26T09:27:40.377Z,25.98
2022-08-26T09:30:30.290Z,26.01
2022-08-26T09:33:14.710Z,25.99
2022-08-26T09:35:48.826Z,25.89
2022-08-26T09:38:27.885Z,25.90
2022-08-26T09:41:02.752Z,25.97
2022-08-26T09:43:33.055Z,26.14
2022-08-26T09:46:24.530Z,26.28
2022-08-26T09:48:53.276Z,26.37
2022-08-26T09:51:23.149Z,26.44
2022-08-26T09:53:54.831Z,26.45
2022-08-26T09:56:25.798Z,26.48
2022-08-26T09:58:56.569Z,26.60
2022-08-26T10:01:51.233Z,26.92
2022-08-26T10:04:28.033Z,27.39
2022-08-26T10:07:00.869Z,27.64
2022-08-26T10:09:36.069Z,27.74
2022-08-26T10:12:13.224Z,27.84
2022-08-26T10:14:50.177Z,28.03
2022-08-26T10:17:26.559Z,28.19
2022-08-26T10:20:03.759Z,28.16
2022-08-26T10:22:46.332Z,28.08
2022-08-26T10:25:20.164Z,28.32
2022-08-26T10:28:06.752Z,28.60
2022-08-26T10:30:42.958Z,28.92
2022-08-26T10:33:18.374Z,29.18
2022-08-26T10:35:58.707Z,29.24
2022-08-26T10:38:34.172Z,29.15
2022-08-26T10:41:11.268Z,28.88
2022-08-26T10:43:51.513Z,28.73
2022-08-26T10:46:27.462Z,28.80
2022-08-26T10:49:06.500Z,28.83
2022-08-26T10:51:42.068Z,28.96
2022-08-26T10:54:26.010Z,28.99
2022-08-26T10:57:12.700Z,29.06
2022-08-26T11:00:24.599Z,29.12
2022-08-26T11:03:22.110Z,29.12
2022-08-26T11:06:25.598Z,29.12
2022-08-26T11:08:59.670Z,29.23
2022-08-26T11:11:45.469Z,29.28
2022-08-26T11:14:28.652Z,29.26
2022-08-26T11:16:58.876Z,29.20
2022-08-26T11:20:01.568Z,29.23
2022-08-26T11:22:37.961Z,29.32
2022-08-26T11:25:20.141Z,29.40
2022-08-26T11:27:47.693Z,29.53
2022-08-26T11:30:18.560Z,29.71
2022-08-26T11:32:58.205Z,29.97
2022-08-26T11:35:46.164Z,30.27
2022-08-26T11:38:27.165Z,30.56
2022-08-26T11:40:59.822Z,30.84
2022-08-26T11:43:32.681Z,31.04
2022-08-26T11:46:10.674Z,31.18
2022-08-26T11:48:43.433Z,31.40
2022-08-26T11:51:27.007Z,31.57
2022-08-26T11:54:15.817Z,31.78
2022-08-26T11:56:47.732Z,31.96
2022-08-26T11:59:23.907Z,32.14
2022-08-26T12:01:54.477Z,32.43
2022-08-26T12:04:28.600Z,32.71
2022-08-26T12:06:58.521Z,32.97
2022-08-26T12:09:34.288Z,33.16
2022-08-26T12:12:22.003Z,33.27
2022-08-26T12:15:10.459Z,33.38
2022-08-26T12:17:39.471Z,33.51
2022-08-26T12:20:17.942Z,33.66
2022-08-26T12:22:48.209Z,33.80
2022-08-26T12:25:23.946Z,33.79
2022-08-26T12:27:54.000Z,33.94
2022-08-26T12:30:24.495Z,34.07
2022-08-26T12:33:22.108Z,34.17
2022-08-26T12:35:56.302Z,34.32
2022-08-26T12:38:26.670Z,34.31
2022-08-26T12:40:56.849Z,34.40
2022-08-26T12:43:43.131Z,34.70
2022-08-26T12:46:18.482Z,34.97
2022-08-26T12:48:49.592Z,35.05
2022-08-26T12:51:27.023Z,35.10
2022-08-26T12:53:55.390Z,35.14
2022-08-26T12:56:33.908Z,35.20
2022-08-26T12:59:11.163Z,35.27
2022-08-26T13:01:44.949Z,35.35
2022-08-26T13:04:46.074Z,35.49
2022-08-26T13:07:20.470Z,35.68
2022-08-26T13:09:50.420Z,35.78
2022-08-26T13:12:37.157Z,35.83
2022-08-26T13:15:06.931Z,35.84
2022-08-26T13:17:35.915Z,35.98
2022-08-26T13:20:04.537Z,36.12
2022-08-26T13:22:33.782Z,36.24
2022-08-26T13:25:01.747Z,36.40
2022-08-26T13:27:29.561Z,36.35
2022-08-26T13:29:58.925Z,36.15
2022-08-26T13:32:27.818Z,35.96
2022-08-26T13:34:57.780Z,35.95
2022-08-26T13:37:34.155Z,36.08
2022-08-26T13:40:07.613Z,36.19
2022-08-26T13:42:35.556Z,36.04
2022-08-26T13:45:03.781Z,35.81
2022-08-26T13:47:31.438Z,35.89
2022-08-26T13:49:59.124Z,36.11
2022-08-26T13:52:30.393Z,36.38
2022-08-26T13:55:00.504Z,36.62
2022-08-26T13:57:30.276Z,36.76
2022-08-26T13:59:59.334Z,36.86
2022-08-26T14:02:28.217Z,36.90
2022-08-26T14:04:56.404Z,36.81
2022-08-26T14:07:24.417Z,36.71
2022-08-26T14:09:52.614Z,36.72
2022-08-26T14:12:20.355Z,36.77
2022-08-26T14:14:48.137Z,36.81
2022-08-26T14:17:20.885Z,36.80
2022-08-26T14:19:50.269Z,36.80
2022-08-26T14:22:21.021Z,36.73
2022-08-26T14:24:49.165Z,36.65
2022-08-26T14:27:16.949Z,36.62
2022-08-26T14:29:44.579Z,36.56
2022-08-26T14:32:21.034Z,36.45
2022-08-26T14:34:50.163Z,36.38
2022-08-26T14:37:19.536Z,36.50
2022-08-26T14:39:47.767Z,36.65
2022-08-26T14:42:20.496Z,36.75
2022-08-26T14:44:55.350Z,36.71
2022-08-26T14:47:23.021Z,36.76
2022-08-26T14:49:50.739Z,36.78
2022-08-26T14:52:18.381Z,36.73
2022-08-26T14:54:46.006Z,36.73
2022-08-26T14:57:14.970Z,36.68
2022-08-26T14:59:50.202Z,36.66
2022-08-26T15:02:33.362Z,36.59
2022-08-26T15:05:02.740Z,36.54
2022-08-26T15:07:31.016Z,36.45
2022-08-26T15:09:59.241Z,36.37
2022-08-26T15:12:27.686Z,36.38
2022-08-26T15:14:55.516Z,36.38
2022-08-26T15:17:23.382Z,36.44
2022-08-26T15:19:51.588Z,36.45
2022-08-26T15:22:19.278Z,36.42
2022-08-26T15:24:47.007Z,36.32
2022-08-26T15:27:19.639Z,36.25
2022-08-26T15:29:47.617Z,36.10
2022-08-26T15:32:15.663Z,35.85
2022-08-26T15:34:43.812Z,35.58
2022-08-26T15:37:11.913Z,35.26
2022-08-26T15:39:39.870Z,34.98
2022-08-26T15:42:07.573Z,34.63
2022-08-26T15:44:36.605Z,34.29
2022-08-26T15:47:04.432Z,33.99
2022-08-26T15:49:32.857Z,33.76
2022-08-26T15:52:02.762Z,33.51
2022-08-26T15:54:33.597Z,33.28
2022-08-26T15:57:02.483Z,33.13
2022-08-26T15:59:33.514Z,33.03
2022-08-26T16:02:01.782Z,32.95
2022-08-26T16:04:29.625Z,32.92
2022-08-26T16:06:57.380Z,32.90
2022-08-26T16:09:27.056Z,32.96
2022-08-26T16:11:58.423Z,32.88
2022-08-26T16:14:26.989Z,32.71
2022-08-26T16:16:54.799Z,32.55
2022-08-26T16:19:22.589Z,32.45
2022-08-26T16:21:51.401Z,32.33
2022-08-26T16:24:24.789Z,32.20
2022-08-26T16:26:54.589Z,32.13
2022-08-26T16:29:22.248Z,32.07
2022-08-26T16:31:53.111Z,32.03
2022-08-26T16:34:21.777Z,31.97
2022-08-26T16:36:49.553Z,32.03
2022-08-26T16:39:17.274Z,32.09
2022-08-26T16:41:44.957Z,32.10
2022-08-26T16:44:12.691Z,32.15
2022-08-26T16:46:41.207Z,32.19
2022-08-26T16:49:08.996Z,32.13
2022-08-26T16:51:38.057Z,32.12
2022-08-26T16:54:08.532Z,32.09
2022-08-26T16:56:37.170Z,32.03
2022-08-26T16:59:07.014Z,31.90
2022-08-26T17:01:34.931Z,31.70
2022-08-26T17:04:02.848Z,31.50
2022-08-26T17:06:30.791Z,31.28
2022-08-26T17:08:58.912Z,31.08
2022-08-26T17:11:26.613Z,30.94
2022-08-26T17:13:54.270Z,30.84
2022-08-26T17:16:26.418Z,30.71
2022-08-26T17:18:57.190Z,30.59
2022-08-26T17:21:26.431Z,30.48
2022-08-26T17:23:55.063Z,30.36
2022-08-26T17:26:22.894Z,30.23
2022-08-26T17:28:51.369Z,30.06
2022-08-26T17:31:20.276Z,29.89
2022-08-26T17:33:53.926Z,29.77
2022-08-26T17:36:27.794Z,29.67
2022-08-26T17:38:57.690Z,29.60
2022-08-26T17:41:26.388Z,29.52
2022-08-26T17:43:54.094Z,29.43
2022-08-26T17:46:21.962Z,29.32
2022-08-26T17:48:49.751Z,29.15
2022-08-26T17:51:19.462Z,28.96
2022-08-26T17:53:48.623Z,28.78
2022-08-26T17:56:19.821Z,28.67
2022-08-26T17:58:47.945Z,28.49
2022-08-26T18:01:21.105Z,28.28
2022-08-26T18:03:49.595Z,28.07
2022-08-26T18:06:17.401Z,27.78
2022-08-26T18:08:45.113Z,27.53
2022-08-26T18:11:17.128Z,27.32
2022-08-26T18:13:46.962Z,27.19
2022-08-26T18:16:17.579Z,27.10
2022-08-26T18:18:47.254Z,27.00
2022-08-26T18:21:17.891Z,26.89
2022-08-26T18:23:46.833Z,26.79
2022-08-26T18:26:33.002Z,26.64
2022-08-26T18:29:01.739Z,26.49
2022-08-26T18:31:30.293Z,26.30
2022-08-26T18:34:02.311Z,26.03
2022-08-26T18:36:33.178Z,25.56
2022-08-26T18:39:02.039Z,25.27
2022-08-26T18:41:32.667Z,25.14
2022-08-26T18:44:00.658Z,25.02
2022-08-26T18:46:28.499Z,24.90
2022-08-26T18:48:57.184Z,24.85
2022-08-26T18:51:29.564Z,24.83
2022-08-26T18:53:58.875Z,24.82
2022-08-26T18:56:27.722Z,24.79
2022-08-26T18:58:55.403Z,24.80
2022-08-26T19:01:27.219Z,24.77
2022-08-26T19:04:00.167Z,24.71
2022-08-26T19:06:32.699Z,24.65
2022-08-26T19:09:01.220Z,24.58
2022-08-26T19:11:31.793Z,24.54
2022-08-26T19:14:06.467Z,24.49
2022-08-26T19:16:35.542Z,24.45
2022-08-26T19:19:04.274Z,24.44
2022-08-26T19:21:33.768Z,24.41
2022-08-26T19:24:04.107Z,24.37
2022-08-26T19:26:32.130Z,24.33
2022-08-26T19:29:00.358Z,24.30
2022-08-26T19:31:28.332Z,24.25
2022-08-26T19:33:57.925Z,24.24
2022-08-26T19:36:27.427Z,24.24
2022-08-26T19:38:56.637Z,24.23
2022-08-26T19:41:37.162Z,24.21
2022-08-26T19:44:33.394Z,24.18
2022-08-26T19:47:03.431Z,24.13
2022-08-26T19:49:32.068Z,24.10
2022-08-26T19:51:59.752Z,24.06
2022-08-26T19:54:28.168Z,24.03
2022-08-26T19:56:55.841Z,24.01
2022-08-26T19:59:23.595Z,24.00
2022-08-26T20:01:55.195Z,23.97
2022-08-26T20:04:32.942Z,23.93
2022-08-26T20:07:02.276Z,23.89
2022-08-26T20:09:31.361Z,23.85
2022-08-26T20:11:59.398Z,23.80
2022-08-26T20:14:27.881Z,23.77
2022-08-26T20:16:55.709Z,23.75
2022-08-26T20:19:39.497Z,23.71
2022-08-26T20:22:08.039Z,23.67
2022-08-26T20:24:37.975Z,23.64
2022-08-26T20:27:07.931Z,23.59
2022-08-26T20:29:37.191Z,23.56
2022-08-26T20:32:07.870Z,23.54
2022-08-26T20:34:36.694Z,23.51
2022-08-26T20:37:05.360Z,23.48
2022-08-26T20:39:33.062Z,23.46
2022-08-26T20:42:00.727Z,23.42
2022-08-26T20:44:28.537Z,23.39
2022-08-26T20:46:56.608Z,23.36
2022-08-26T20:49:24.209Z,23.33
2022-08-26T20:51:52.987Z,23.30
2022-08-26T20:54:27.571Z,23.28
2022-08-26T20:56:58.018Z,23.26
2022-08-26T20:59:26.797Z,23.24
2022-08-26T21:01:54.842Z,23.21
2022-08-26T21:04:26.036Z,23.18
2022-08-26T21:06:54.638Z,23.14
2022-08-26T21:09:24.192Z,23.11
2022-08-26T21:11:52.871Z,23.06
2022-08-26T21:14:23.215Z,23.03
2022-08-26T21:16:53.623Z,22.99
2022-08-26T21:19:21.361Z,22.95
2022-08-26T21:21:50.079Z,22.92
2022-08-26T21:24:18.076Z,22.90
2022-08-26T21:26:47.135Z,22.86
2022-08-26T21:29:15.179Z,22.82
2022-08-26T21:45:52.825Z,22.57
2022-08-26T21:48:22.882Z,22.56
2022-08-26T21:50:57.380Z,22.54
2022-08-26T21:53:25.195Z,22.52
2022-08-26T21:55:52.842Z,22.50
2022-08-26T21:58:20.455Z,22.49
2022-08-26T22:00:50.659Z,22.46
2022-08-26T22:03:18.444Z,22.44
2022-08-26T22:05:51.057Z,22.44
2022-08-26T22:08:20.417Z,22.43
2022-08-26T22:10:51.953Z,22.42
2022-08-26T22:13:26.054Z,22.40
2022-08-26T22:15:54.041Z,22.40
2022-08-26T22:18:21.646Z,22.38
2022-08-26T22:20:49.313Z,22.34
2022-08-26T22:23:17.066Z,22.32
2022-08-26T22:25:45.219Z,22.31
2022-08-26T22:28:12.984Z,22.29
2022-08-26T22:30:42.834Z,22.28
2022-08-26T22:33:11.150Z,22.26
2022-08-26T22:35:50.697Z,22.23
2022-08-26T22:38:19.808Z,22.22
2022-08-26T22:40:56.357Z,22.19
2022-08-26T22:43:25.755Z,22.14
2022-08-26T22:45:55.421Z,22.10
2022-08-26T22:48:26.410Z,22.07
2022-08-26T22:50:59.684Z,22.04
2022-08-26T22:53:28.067Z,22.02
2022-08-26T22:55:55.898Z,21.98
2022-08-26T22:58:30.454Z,21.94
2022-08-26T23:00:59.450Z,21.90
2022-08-26T23:03:27.924Z,21.87
2022-08-26T23:05:55.948Z,21.83
2022-08-26T23:08:24.911Z,21.78
2022-08-26T23:10:52.676Z,21.74
2022-08-26T23:13:20.499Z,21.71
2022-08-26T23:15:48.179Z,21.69
2022-08-26T23:18:15.993Z,21.66
2022-08-26T23:20:43.701Z,21.64
2022-08-26T23:23:12.920Z,21.61
2022-08-26T23:25:41.083Z,21.58
2022-08-26T23:28:09.345Z,21.56
2022-08-26T23:30:37.161Z,21.53
2022-08-26T23:33:04.851Z,21.50
2022-08-26T23:35:32.546Z,21.46
2022-08-26T23:38:00.720Z,21.41
2022-08-26T23:40:32.356Z,21.38
2022-08-26T23:43:05.513Z,21.35
2022-08-26T23:45:34.798Z,21.31
2022-08-26T23:48:03.375Z,21.24
2022-08-26T23:50:47.629Z,21.17
2022-08-26T23:53:20.018Z,21.12
2022-08-26T23:55:49.834Z,21.09
2022-08-26T23:58:19.207Z,21.07
